createdAt,value
2023-06-17T00:01:24.909Z,98699.94
2023-06-17T00:03:53.042Z,98692.75
2023-06-17T00:06:20.666Z,98691.56
2023-06-17T00:08:48.215Z,98686.31
2023-06-17T00:11:15.712Z,98684.94
2023-06-17T00:13:43.291Z,98699.78
2023-06-17T00:16:13.885Z,98692.97
2023-06-17T00:18:42.450Z,98691.88
2023-06-17T00:21:10.409Z,98693.41
2023-06-17T00:23:38.045Z,98699.03
2023-06-17T00:26:05.578Z,98701.28
2023-06-17T00:28:33.401Z,98700.22
2023-06-17T00:31:00.987Z,98686.97
2023-06-17T00:33:28.511Z,98691.84
2023-06-17T00:35:56.504Z,98699.34
2023-06-17T00:38:24.038Z,98705.53
2023-06-17T00:40:51.544Z,98697.53
2023-06-17T00:43:19.180Z,98701.03
2023-06-17T00:45:47.363Z,98700.63
2023-06-17T00:48:18.580Z,98704.06
2023-06-17T00:50:47.473Z,98697.88
2023-06-17T00:53:15.469Z,98703.59
2023-06-17T00:55:43.625Z,98703.53
2023-06-17T00:58:11.389Z,98701.56
2023-06-17T01:00:38.902Z,98695.78
2023-06-17T01:03:08.752Z,98705.63
2023-06-17T01:05:36.439Z,98698.88
2023-06-17T01:08:15.528Z,98700.94
2023-06-17T01:11:06.032Z,98700.63
2023-06-17T01:13:35.860Z,98699.97
2023-06-17T01:16:06.056Z,98703.78
2023-06-17T01:18:34.490Z,98699.63
2023-06-17T01:21:04.813Z,98699.59
2023-06-17T01:23:39.075Z,98703.78
2023-06-17T01:26:08.495Z,98698.47
2023-06-17T01:28:41.831Z,98701.88
2023-06-17T01:31:13.848Z,98700.75
2023-06-17T01:33:47.220Z,98707.19
2023-06-17T01:36:23.070Z,98701.13
2023-06-17T01:39:06.334Z,98696.16
2023-06-17T01:41:41.519Z,98701.47
2023-06-17T01:44:10.147Z,98696.16
2023-06-17T01:46:39.418Z,98693.53
2023-06-17T01:49:07.921Z,98696.22
2023-06-17T01:51:36.293Z,98692.44
2023-06-17T01:54:03.960Z,98698.16
2023-06-17T01:56:32.183Z,98692.84
2023-06-17T01:58:59.784Z,98694.34
2023-06-17T02:01:27.964Z,98693.19
2023-06-17T02:03:55.537Z,98684.84
2023-06-17T02:06:23.682Z,98684.47
2023-06-17T02:08:51.400Z,98687.13
2023-06-17T02:11:18.994Z,98686.03
2023-06-17T02:13:46.999Z,98687.56
2023-06-17T02:16:14.620Z,98679.91
2023-06-17T02:18:43.646Z,98679.50
2023-06-17T02:21:11.274Z,98671.47
2023-06-17T02:23:38.803Z,98673.44
2023-06-17T02:26:06.334Z,98668.91
2023-06-17T02:28:33.890Z,98668.50
2023-06-17T02:31:01.414Z,98668.91
2023-06-17T02:33:30.986Z,98666.25
2023-06-17T02:35:59.532Z,98664.75
2023-06-17T02:38:27.681Z,98669.69
2023-06-17T02:40:56.528Z,98667.78
2023-06-17T02:43:24.003Z,98674.59
2023-06-17T02:45:51.703Z,98673.84
2023-06-17T02:48:19.212Z,98670.06
2023-06-17T02:50:46.865Z,98669.31
2023-06-17T02:53:16.264Z,98677.28
2023-06-17T02:55:46.639Z,98675.38
2023-06-17T02:58:20.290Z,98678.75
2023-06-17T03:00:51.998Z,98688.28
2023-06-17T03:03:19.933Z,98684.88
2023-06-17T03:05:49.042Z,98688.25
2023-06-17T03:08:19.264Z,98681.06
2023-06-17T03:10:47.410Z,98688.28
2023-06-17T03:13:15.679Z,98682.59
2023-06-17T03:15:47.095Z,98678.41
2023-06-17T03:18:20.304Z,98679.94
2023-06-17T03:20:48.171Z,98686.03
2023-06-17T03:23:16.818Z,98680.31
2023-06-17T03:25:45.903Z,98679.56
2023-06-17T03:28:13.531Z,98675.41
2023-06-17T03:30:41.709Z,98682.59
2023-06-17T03:33:11.052Z,98684.09
2023-06-17T03:35:38.586Z,98695.13
2023-06-17T03:38:06.475Z,98694.03
2023-06-17T03:40:34.004Z,98701.59
2023-06-17T03:43:02.637Z,98704.63
2023-06-17T03:45:31.944Z,98711.06
2023-06-17T03:48:01.490Z,98705.00
2023-06-17T03:50:30.030Z,98701.97
2023-06-17T03:52:58.519Z,98711.84
2023-06-17T03:55:26.450Z,98709.22
2023-06-17T03:57:56.247Z,98698.94
2023-06-17T04:00:24.152Z,98709.19
2023-06-17T04:02:52.286Z,98711.84
2023-06-17T04:05:32.628Z,98720.19
2023-06-17T04:08:03.730Z,98717.91
2023-06-17T04:10:31.523Z,98714.88
2023-06-17T04:13:00.429Z,98722.47
2023-06-17T04:15:28.072Z,98725.50
2023-06-17T04:17:58.132Z,98733.47
2023-06-17T04:20:27.408Z,98729.25
2023-06-17T04:22:55.009Z,98723.91
2023-06-17T04:25:24.118Z,98732.28
2023-06-17T04:27:55.054Z,98725.03
2023-06-17T04:30:26.246Z,98732.66
2023-06-17T04:32:59.578Z,98734.16
2023-06-17T04:35:28.710Z,98739.13
2023-06-17T04:37:57.821Z,98743.66
2023-06-17T04:40:26.461Z,98744.41
2023-06-17T04:42:54.202Z,98751.28
2023-06-17T04:45:23.739Z,98750.88
2023-06-17T04:47:57.076Z,98761.50
2023-06-17T04:50:25.122Z,98764.50
2023-06-17T04:52:53.081Z,98766.78
2023-06-17T04:55:24.975Z,98769.44
2023-06-17T04:57:52.546Z,98771.69
2023-06-17T05:00:33.481Z,98772.09
2023-06-17T05:03:01.542Z,98774.34
2023-06-17T05:05:30.128Z,98773.97
2023-06-17T05:07:58.065Z,98767.88
2023-06-17T05:10:25.597Z,98774.31
2023-06-17T05:12:53.268Z,98777.03
2023-06-17T05:15:21.269Z,98777.81
2023-06-17T05:17:49.411Z,98774.09
2023-06-17T05:20:17.238Z,98768.00
2023-06-17T05:22:45.190Z,98780.88
2023-06-17T05:25:12.784Z,98785.44
2023-06-17T05:27:41.166Z,98782.47
2023-06-17T05:30:10.566Z,98782.81
2023-06-17T05:32:40.164Z,98776.00
2023-06-17T05:35:08.442Z,98783.19
2023-06-17T05:37:36.052Z,98785.91
2023-06-17T05:40:05.615Z,98792.38
2023-06-17T05:42:33.947Z,98793.09
2023-06-17T05:45:01.547Z,98805.59
2023-06-17T05:47:31.167Z,98803.66
2023-06-17T05:49:59.176Z,98807.47
2023-06-17T05:52:27.553Z,98805.59
2023-06-17T05:54:55.082Z,98805.19
2023-06-17T05:57:22.702Z,98813.50
2023-06-17T05:59:50.720Z,98818.03
2023-06-17T06:02:19.206Z,98816.53
2023-06-17T06:04:48.416Z,98813.16
2023-06-17T06:07:15.970Z,98819.28
2023-06-17T06:09:43.615Z,98812.38
2023-06-17T06:12:12.124Z,98821.34
2023-06-17T06:14:40.622Z,98818.00
2023-06-17T06:17:08.460Z,98818.38
2023-06-17T06:19:36.226Z,98823.38
2023-06-17T06:22:04.189Z,98828.69
2023-06-17T06:24:31.819Z,98832.41
2023-06-17T06:27:00.910Z,98835.81
2023-06-17T06:29:28.438Z,98836.09
2023-06-17T06:31:56.019Z,98830.00
2023-06-17T06:34:23.720Z,98843.41
2023-06-17T06:36:51.844Z,98836.53
2023-06-17T06:39:20.153Z,98839.19
2023-06-17T06:41:48.070Z,98840.56
2023-06-17T06:44:34.274Z,98831.03
2023-06-17T06:47:02.114Z,98842.47
2023-06-17T06:49:31.414Z,98831.56
2023-06-17T06:51:59.234Z,98833.84
2023-06-17T06:54:26.847Z,98830.03
2023-06-17T06:56:54.436Z,98830.44
2023-06-17T06:59:22.041Z,98830.44
2023-06-17T07:01:52.525Z,98832.38
2023-06-17T07:04:22.562Z,98836.94
2023-06-17T07:06:55.141Z,98828.56
2023-06-17T07:09:28.188Z,98832.78
2023-06-17T07:11:55.798Z,98833.56
2023-06-17T07:14:23.786Z,98833.91
2023-06-17T07:16:52.175Z,98832.78
2023-06-17T07:19:20.004Z,98822.81
2023-06-17T07:21:49.873Z,98832.25
2023-06-17T07:24:18.344Z,98827.25
2023-06-17T07:26:46.429Z,98828.13
2023-06-17T07:29:14.108Z,98824.63
2023-06-17T07:31:41.816Z,98829.13
2023-06-17T07:34:10.030Z,98830.34
2023-06-17T07:36:37.593Z,98828.47
2023-06-17T07:39:06.662Z,98835.00
2023-06-17T07:41:34.171Z,98834.69
2023-06-17T07:44:02.215Z,98830.97
2023-06-17T07:46:33.322Z,98827.13
2023-06-17T07:49:01.031Z,98828.63
2023-06-17T07:51:28.563Z,98837.69
2023-06-17T07:53:56.127Z,98828.63
2023-06-17T07:56:26.424Z,98835.03
2023-06-17T07:58:53.948Z,98837.66
2023-06-17T08:01:21.988Z,98840.78
2023-06-17T08:03:49.795Z,98841.59
2023-06-17T08:06:17.523Z,98847.31
2023-06-17T08:08:45.060Z,98848.75
2023-06-17T08:11:13.131Z,98849.09
2023-06-17T08:13:40.702Z,98863.53
2023-06-17T08:16:08.408Z,98863.56
2023-06-17T08:18:35.935Z,98854.81
2023-06-17T08:21:03.632Z,98863.53
2023-06-17T08:23:32.262Z,98858.06
2023-06-17T08:26:00.952Z,98859.63
2023-06-17T08:28:28.752Z,98856.56
2023-06-17T08:30:58.318Z,98860.00
2023-06-17T08:33:26.600Z,98864.47
2023-06-17T08:35:54.536Z,98858.47
2023-06-17T08:38:22.359Z,98862.25
2023-06-17T08:40:50.102Z,98858.09
2023-06-17T08:43:21.557Z,98857.69
2023-06-17T08:45:53.278Z,98854.66
2023-06-17T08:48:21.928Z,98858.81
2023-06-17T08:50:52.197Z,98850.41
2023-06-17T08:53:21.051Z,98849.31
2023-06-17T08:55:49.284Z,98849.63
2023-06-17T08:58:17.032Z,98856.91
2023-06-17T09:00:44.706Z,98853.28
2023-06-17T09:03:13.013Z,98853.59
2023-06-17T09:05:40.711Z,98847.22
2023-06-17T09:08:08.477Z,98858.72
2023-06-17T09:10:45.900Z,98860.47
2023-06-17T09:13:13.678Z,98850.72
2023-06-17T09:15:42.037Z,98862.88
2023-06-17T09:18:09.786Z,98857.00
2023-06-17T09:20:37.447Z,98858.66
2023-06-17T09:23:05.235Z,98851.44
2023-06-17T09:25:36.544Z,98854.41
2023-06-17T09:28:15.345Z,98859.69
2023-06-17T09:30:54.387Z,98853.00
2023-06-17T09:33:24.170Z,98860.81
2023-06-17T09:36:05.483Z,98867.03
2023-06-17T09:38:35.305Z,98868.84
2023-06-17T09:41:05.611Z,98863.63
2023-06-17T09:43:33.210Z,98859.41
2023-06-17T09:46:04.920Z,98864.88
2023-06-17T09:48:35.678Z,98873.91
2023-06-17T09:51:11.055Z,98866.38
2023-06-17T09:53:44.646Z,98872.78
2023-06-17T09:56:17.836Z,98869.19
2023-06-17T09:58:46.749Z,98864.41
2023-06-17T10:01:15.179Z,98873.16
2023-06-17T10:03:46.218Z,98872.50
2023-06-17T10:06:20.717Z,98869.59
2023-06-17T10:08:52.863Z,98878.00
2023-06-17T10:11:22.651Z,98875.00
2023-06-17T10:14:19.713Z,98871.56
2023-06-17T10:16:50.961Z,98870.50
2023-06-17T10:19:26.270Z,98866.00
2023-06-17T10:22:01.662Z,98860.47
2023-06-17T10:24:33.146Z,98864.69
2023-06-17T10:27:11.602Z,98857.03
2023-06-17T10:29:46.808Z,98863.25
2023-06-17T10:32:26.925Z,98855.06
2023-06-17T10:35:14.241Z,98857.28
2023-06-17T10:37:50.539Z,98862.09
2023-06-17T10:40:36.816Z,98857.41
2023-06-17T10:43:27.587Z,98856.25
2023-06-17T10:45:59.378Z,98859.72
2023-06-17T10:48:35.361Z,98853.09
2023-06-17T10:51:12.210Z,98851.41
2023-06-17T10:53:52.001Z,98844.59
2023-06-17T10:56:24.858Z,98843.78
2023-06-17T10:58:52.963Z,98847.84
2023-06-17T11:01:22.367Z,98852.13
2023-06-17T11:04:01.394Z,98847.53
2023-06-17T11:06:36.269Z,98847.25
2023-06-17T11:09:06.961Z,98842.63
2023-06-17T11:11:35.782Z,98841.94
2023-06-17T11:14:04.261Z,98835.19
2023-06-17T11:16:34.419Z,98835.66
2023-06-17T11:19:07.300Z,98829.63
2023-06-17T11:21:43.379Z,98826.28
2023-06-17T11:24:14.537Z,98818.19
2023-06-17T11:26:45.126Z,98821.59
2023-06-17T11:29:14.208Z,98821.78
2023-06-17T11:31:43.432Z,98826.25
2023-06-17T11:35:27.598Z,98816.50
2023-06-17T11:38:05.215Z,98814.75
2023-06-17T11:40:36.957Z,98815.44
2023-06-17T11:43:08.920Z,98815.16
2023-06-17T11:45:38.652Z,98809.28
2023-06-17T11:48:09.836Z,98804.44
2023-06-17T11:50:42.029Z,98811.31
2023-06-17T11:53:15.474Z,98805.75
2023-06-17T11:55:47.242Z,98805.78
2023-06-17T11:58:21.213Z,98816.44
2023-06-17T12:00:49.860Z,98812.63
2023-06-17T12:03:20.630Z,98811.44
2023-06-17T12:06:11.919Z,98809.31
2023-06-17T12:08:42.531Z,98815.91
2023-06-17T12:11:46.081Z,98815.41
2023-06-17T12:14:18.997Z,98817.31
2023-06-17T12:16:49.554Z,98809.38
2023-06-17T12:19:26.209Z,98814.38
2023-06-17T12:21:54.708Z,98811.78
2023-06-17T12:24:25.648Z,98807.19
2023-06-17T12:26:59.825Z,98806.50
2023-06-17T12:29:30.858Z,98804.75
2023-06-17T12:32:01.959Z,98797.72
2023-06-17T12:34:31.284Z,98800.66
2023-06-17T12:37:13.637Z,98785.75
2023-06-17T12:39:44.348Z,98795.88
2023-06-17T12:42:15.086Z,98789.00
2023-06-17T12:44:48.324Z,98792.81
2023-06-17T12:47:24.956Z,98791.03
2023-06-17T12:49:55.399Z,98799.53
2023-06-17T12:52:27.845Z,98794.81
2023-06-17T12:55:06.872Z,98786.53
2023-06-17T12:57:35.776Z,98792.59
2023-06-17T13:00:08.128Z,98788.13
2023-06-17T13:02:39.074Z,98797.41
2023-06-17T13:05:09.397Z,98791.56
2023-06-17T13:07:41.927Z,98788.19
2023-06-17T13:10:12.728Z,98780.63
2023-06-17T13:12:42.846Z,98791.19
2023-06-17T13:15:12.212Z,98782.28
2023-06-17T13:17:40.753Z,98782.28
2023-06-17T13:20:11.405Z,98778.03
2023-06-17T13:22:40.159Z,98774.66
2023-06-17T13:25:10.909Z,98772.53
2023-06-17T13:27:41.962Z,98780.22
2023-06-17T13:30:12.009Z,98778.03
2023-06-17T13:32:40.863Z,98784.31
2023-06-17T13:35:11.826Z,98785.59
2023-06-17T13:37:41.215Z,98779.13
2023-06-17T13:40:10.338Z,98780.38
2023-06-17T13:42:38.803Z,98775.31
2023-06-17T13:45:08.941Z,98781.19
2023-06-17T13:47:37.210Z,98785.66
2023-06-17T13:50:08.016Z,98788.09
2023-06-17T13:52:36.397Z,98788.66
2023-06-17T13:55:05.815Z,98791.19
2023-06-17T13:57:33.952Z,98797.16
2023-06-17T14:00:05.071Z,98791.81
2023-06-17T14:02:37.440Z,98793.63
2023-06-17T14:05:08.454Z,98801.44
2023-06-17T14:07:36.994Z,98803.41
2023-06-17T14:10:05.893Z,98806.94
2023-06-17T14:12:34.479Z,98806.66
2023-06-17T14:15:04.446Z,98814.59
2023-06-17T14:17:33.106Z,98811.34
2023-06-17T14:20:04.209Z,98810.13
2023-06-17T14:22:33.956Z,98805.94
2023-06-17T14:25:01.553Z,98809.16
2023-06-17T14:27:43.789Z,98814.72
2023-06-17T14:30:14.878Z,98806.88
2023-06-17T14:32:46.088Z,98814.38
2023-06-17T14:35:17.900Z,98814.13
2023-06-17T14:37:49.744Z,98811.16
2023-06-17T14:40:19.202Z,98811.97
2023-06-17T14:42:48.776Z,98818.72
2023-06-17T14:45:18.108Z,98816.34
2023-06-17T14:47:46.827Z,98825.97
2023-06-17T14:50:18.135Z,98807.88
2023-06-17T14:52:51.497Z,98814.03
2023-06-17T14:55:20.788Z,98812.78
2023-06-17T14:57:51.471Z,98808.44
2023-06-17T15:00:22.500Z,98810.13
2023-06-17T15:02:57.968Z,98819.00
2023-06-17T15:05:28.496Z,98812.56
2023-06-17T15:07:57.563Z,98812.53
2023-06-17T15:10:25.935Z,98818.97
2023-06-17T15:12:54.080Z,98818.59
2023-06-17T15:15:22.386Z,98818.31
2023-06-17T15:17:50.668Z,98824.34
2023-06-17T15:20:20.911Z,98825.53
2023-06-17T15:22:49.353Z,98818.63
2023-06-17T15:25:18.662Z,98821.84
2023-06-17T15:27:46.586Z,98831.84
2023-06-17T15:30:14.588Z,98830.59
2023-06-17T15:32:42.939Z,98823.63
2023-06-17T15:35:12.436Z,98828.44
2023-06-17T15:37:41.858Z,98829.34
2023-06-17T15:40:14.389Z,98822.56
2023-06-17T15:42:45.139Z,98825.19
2023-06-17T15:45:13.480Z,98825.06
2023-06-17T15:47:42.519Z,98823.13
2023-06-17T15:50:11.454Z,98830.13
2023-06-17T15:52:41.083Z,98830.88
2023-06-17T15:55:09.470Z,98830.13
2023-06-17T15:57:39.120Z,98829.81
2023-06-17T16:00:09.445Z,98835.13
2023-06-17T16:02:43.415Z,98849.97
2023-06-17T16:05:14.841Z,98835.69
2023-06-17T16:07:43.022Z,98851.00
2023-06-17T16:10:11.642Z,98843.69
2023-06-17T16:12:39.775Z,98850.25
2023-06-17T16:15:09.665Z,98849.19
2023-06-17T16:17:39.501Z,98846.09
2023-06-17T16:20:09.382Z,98844.97
2023-06-17T16:22:38.737Z,98843.59
2023-06-17T16:25:09.888Z,98856.78
2023-06-17T16:27:41.702Z,98849.41
2023-06-17T16:30:13.535Z,98851.16
2023-06-17T16:32:41.599Z,98847.91
2023-06-17T16:35:10.185Z,98851.84
2023-06-17T16:37:38.002Z,98854.81
2023-06-17T16:40:06.970Z,98853.72
2023-06-17T16:42:37.311Z,98855.91
2023-06-17T16:45:06.986Z,98860.34
2023-06-17T16:47:34.883Z,98866.97
2023-06-17T16:50:03.101Z,98868.72
2023-06-17T16:52:31.267Z,98877.06
2023-06-17T16:55:02.396Z,98879.16
2023-06-17T16:57:33.517Z,98880.47
2023-06-17T17:00:02.769Z,98881.31
2023-06-17T17:02:33.879Z,98892.34
2023-06-17T17:05:03.715Z,98893.53
2023-06-17T17:07:32.816Z,98892.44
2023-06-17T17:10:01.589Z,98903.88
2023-06-17T17:12:30.465Z,98897.03
2023-06-17T17:14:58.901Z,98896.25
2023-06-17T17:17:41.339Z,98901.94
2023-06-17T17:20:32.610Z,98909.91
2023-06-17T17:23:04.748Z,98910.31
2023-06-17T17:25:43.655Z,98909.16
2023-06-17T17:28:24.060Z,98905.31
2023-06-17T17:30:55.375Z,98912.19
2023-06-17T17:33:27.244Z,98915.22
2023-06-17T17:35:58.526Z,98910.69
2023-06-17T17:38:27.851Z,98907.25
2023-06-17T17:40:57.059Z,98905.72
2023-06-17T17:43:30.966Z,98907.25
2023-06-17T17:46:03.491Z,98906.47
2023-06-17T17:48:33.660Z,98897.78
2023-06-17T17:51:05.082Z,98898.22
2023-06-17T17:53:35.065Z,98903.50
2023-06-17T17:56:05.940Z,98903.16
2023-06-17T17:58:39.583Z,98898.63
2023-06-17T18:01:11.069Z,98902.41
2023-06-17T18:03:42.214Z,98899.78
2023-06-17T18:06:12.222Z,98904.34
2023-06-17T18:08:44.339Z,98910.47
2023-06-17T18:11:14.582Z,98917.31
2023-06-17T18:13:44.456Z,98921.09
2023-06-17T18:16:12.965Z,98932.88
2023-06-17T18:18:49.298Z,98933.63
2023-06-17T18:21:18.162Z,98945.03
2023-06-17T18:23:48.286Z,98948.06
2023-06-17T18:26:18.005Z,98956.03
2023-06-17T18:28:47.901Z,98955.31
2023-06-17T18:31:17.270Z,98961.03
2023-06-17T18:33:49.738Z,98958.72
2023-06-17T18:36:19.108Z,98960.28
2023-06-17T18:38:51.280Z,98956.50
2023-06-17T18:41:21.251Z,98961.09
2023-06-17T18:43:53.016Z,98970.16
2023-06-17T18:46:21.604Z,98978.13
2023-06-17T18:48:51.766Z,98973.22
2023-06-17T18:51:20.906Z,98975.13
2023-06-17T18:53:52.074Z,98972.44
2023-06-17T18:56:26.305Z,98978.41
2023-06-17T18:58:57.630Z,98976.22
2023-06-17T19:01:32.982Z,98980.03
2023-06-17T19:04:04.664Z,98989.22
2023-06-17T19:06:32.863Z,98986.97
2023-06-17T19:09:07.458Z,98990.41
2023-06-17T19:11:36.680Z,99001.78
2023-06-17T19:14:07.171Z,99004.81
2023-06-17T19:16:37.340Z,99010.53
2023-06-17T19:19:11.625Z,99012.81
2023-06-17T19:21:40.385Z,99021.56
2023-06-17T19:24:09.382Z,99025.38
2023-06-17T19:26:38.616Z,99026.50
2023-06-17T19:29:07.916Z,99022.69
2023-06-17T19:31:36.551Z,99030.31
2023-06-17T19:34:10.858Z,99024.59
2023-06-17T19:36:40.542Z,99025.38
2023-06-17T19:39:10.756Z,99030.69
2023-06-17T19:41:41.604Z,99028.81
2023-06-17T19:44:11.284Z,99029.53
2023-06-17T19:46:41.788Z,99029.91
2023-06-17T19:49:11.292Z,99024.97
2023-06-17T19:51:40.639Z,99019.66
2023-06-17T19:54:12.089Z,99018.88
2023-06-17T19:56:41.644Z,99021.91
2023-06-17T19:59:10.638Z,99021.56
2023-06-17T20:01:40.943Z,99010.94
2023-06-17T20:04:10.504Z,99008.22
2023-06-17T20:06:38.652Z,99007.06
2023-06-17T20:09:09.673Z,99012.00
2023-06-17T20:11:38.836Z,99015.06
2023-06-17T20:14:08.955Z,99020.38
2023-06-17T20:16:42.655Z,99023.44
2023-06-17T20:19:11.688Z,99018.13
2023-06-17T20:21:47.261Z,99013.56
2023-06-17T20:24:19.053Z,99015.84
2023-06-17T20:26:51.956Z,99015.09
2023-06-17T20:29:21.960Z,99009.72
2023-06-17T20:31:50.659Z,99019.59
2023-06-17T20:34:25.224Z,99021.44
2023-06-17T20:36:54.638Z,99019.56
2023-06-17T20:39:24.559Z,99019.19
2023-06-17T20:41:53.380Z,99028.66
2023-06-17T20:44:25.588Z,99030.50
2023-06-17T20:47:02.581Z,99032.38
2023-06-17T20:49:32.033Z,99035.78
2023-06-17T20:52:03.094Z,99036.19
2023-06-17T20:54:35.006Z,99038.81
2023-06-17T20:57:07.910Z,99034.53
2023-06-17T20:59:40.397Z,99029.56
2023-06-17T21:02:11.423Z,99029.47
2023-06-17T21:04:40.928Z,99034.00
2023-06-17T21:07:18.704Z,99034.19
2023-06-17T21:09:48.490Z,99039.41
2023-06-17T21:12:20.182Z,99031.75
2023-06-17T21:14:54.220Z,99031.34
2023-06-17T21:17:26.214Z,99036.66
2023-06-17T21:19:57.536Z,99045.47
2023-06-17T21:22:26.190Z,99041.19
2023-06-17T21:24:54.525Z,99045.72
2023-06-17T21:27:25.787Z,99050.34
2023-06-17T21:29:54.167Z,99048.47
2023-06-17T21:32:23.650Z,99046.19
2023-06-17T21:34:52.496Z,99050.81
2023-06-17T21:37:20.970Z,99042.06
2023-06-17T21:39:51.155Z,99040.25
2023-06-17T21:42:19.506Z,99034.06
2023-06-17T21:44:47.862Z,99029.13
2023-06-17T21:47:17.321Z,99030.22
2023-06-17T21:49:45.410Z,99025.88
2023-06-17T21:52:13.559Z,99022.44
2023-06-17T21:54:41.312Z,99019.31
2023-06-17T21:57:12.406Z,99015.56
2023-06-17T21:59:41.734Z,98998.84
2023-06-17T22:02:09.713Z,99005.56
2023-06-17T22:04:38.184Z,98995.69
2023-06-17T22:07:07.235Z,98990.22
2023-06-17T22:09:35.193Z,98993.63
2023-06-17T22:12:03.425Z,98987.56
2023-06-17T22:14:31.675Z,98990.38
2023-06-17T22:17:01.592Z,98995.09
2023-06-17T22:19:30.228Z,98998.25
2023-06-17T22:21:58.222Z,98990.13
2023-06-17T22:24:25.794Z,98988.59
2023-06-17T22:26:54.450Z,98978.91
2023-06-17T22:29:21.903Z,98976.78
2023-06-17T22:31:49.435Z,98976.13
2023-06-17T22:34:17.475Z,98971.94
2023-06-17T22:36:47.184Z,98977.19
2023-06-17T22:39:15.624Z,98968.16
2023-06-17T22:41:44.469Z,98959.69
2023-06-17T22:44:12.089Z,98958.56
2023-06-17T22:46:40.136Z,98951.75
2023-06-17T22:49:07.749Z,98953.88
2023-06-17T22:51:36.841Z,98952.78
2023-06-17T22:54:06.805Z,98951.16
2023-06-17T22:56:34.430Z,98958.91
2023-06-17T22:59:01.924Z,98958.06
2023-06-17T23:01:29.506Z,98955.81
2023-06-17T23:03:57.507Z,98954.31
2023-06-17T23:06:26.884Z,98961.16
2023-06-17T23:08:56.020Z,98967.97
2023-06-17T23:11:26.323Z,98969.94
2023-06-17T23:14:01.532Z,98974.28
2023-06-17T23:16:29.782Z,98982.69
2023-06-17T23:18:57.304Z,98973.84
2023-06-17T23:21:27.140Z,98978.47
2023-06-17T23:23:55.511Z,98979.41
2023-06-17T23:26:28.598Z,98982.56
2023-06-17T23:28:59.156Z,98990.47
2023-06-17T23:31:27.448Z,98991.72
2023-06-17T23:33:55.289Z,98985.50
2023-06-17T23:36:24.262Z,98998.75
2023-06-17T23:38:53.094Z,98990.44
2023-06-17T23:41:20.834Z,98989.09
2023-06-17T23:43:48.476Z,98992.19
2023-06-17T23:46:17.325Z,98991.47
2023-06-17T23:48:45.512Z,98991.34
2023-06-17T23:51:13.062Z,98985.91
2023-06-17T23:53:40.680Z,98996.47
2023-06-17T23:56:08.261Z,98995.81
2023-06-17T23:58:36.780Z,98991.34
